Lismore, Minnesota
Current Conditions -  °F | °C
As of 5:15 PM on Thursday 27 Nov 2014 (Local Time) from KLYV Reporting Station
Overcast Overcast  
Wind Chill:   Ceiling: 7000
Heat Index: 14°   Visibility: 10mi
Dew Point:   Wind: 10mph
Humidity: 62%   Direction: 140°SE
Pressure: 30.26"   Gusts: NA
Location:  43.75°N, 95.95°W
Report Text: KLYV 272315Z AUTO 14009KT 10SM SCT060 BKN070 OVC080 M10/M16 A3026 RMK AO2
Loading
Personal Weather Stations






























Interactive Weather Map New forecast layout! Learn more

10-Day Weather Forecast

Advertisements
Track Severe Weather on mobile